sensor_id;sensor_type;location;lat;lon;timestamp;P1;durP1;ratioP1;P2;durP2;ratioP2
47337;SDS011;33069;51.970;5.892;2023-02-15T00:01:07;73.05;;;40.40;;
47337;SDS011;33069;51.970;5.892;2023-02-15T00:03:34;73.03;;;39.58;;
47337;SDS011;33069;51.970;5.892;2023-02-15T00:06:01;69.38;;;39.70;;
47337;SDS011;33069;51.970;5.892;2023-02-15T00:08:27;73.93;;;39.30;;
47337;SDS011;33069;51.970;5.892;2023-02-15T00:10:53;72.47;;;40.10;;
47337;SDS011;33069;51.970;5.892;2023-02-15T00:13:27;73.70;;;41.50;;
47337;SDS011;33069;51.970;5.892;2023-02-15T00:15:53;78.53;;;41.00;;
47337;SDS011;33069;51.970;5.892;2023-02-15T00:18:19;71.80;;;39.25;;
47337;SDS011;33069;51.970;5.892;2023-02-15T00:20:45;70.40;;;38.70;;
47337;SDS011;33069;51.970;5.892;2023-02-15T00:23:10;70.40;;;38.92;;
47337;SDS011;33069;51.970;5.892;2023-02-15T00:25:36;85.50;;;43.83;;
47337;SDS011;33069;51.970;5.892;2023-02-15T00:28:02;71.50;;;39.20;;
47337;SDS011;33069;51.970;5.892;2023-02-15T00:30:27;101.60;;;48.83;;
47337;SDS011;33069;51.970;5.892;2023-02-15T00:32:53;74.90;;;38.95;;
47337;SDS011;33069;51.970;5.892;2023-02-15T00:35:19;75.03;;;41.05;;
47337;SDS011;33069;51.970;5.892;2023-02-15T00:37:44;87.68;;;44.15;;
47337;SDS011;33069;51.970;5.892;2023-02-15T00:40:10;88.22;;;45.72;;
47337;SDS011;33069;51.970;5.892;2023-02-15T00:42:36;72.60;;;40.00;;
47337;SDS011;33069;51.970;5.892;2023-02-15T00:45:02;77.93;;;41.97;;
47337;SDS011;33069;51.970;5.892;2023-02-15T00:47:27;80.47;;;42.90;;
47337;SDS011;33069;51.970;5.892;2023-02-15T00:49:53;71.93;;;38.97;;
47337;SDS011;33069;51.970;5.892;2023-02-15T00:52:19;66.97;;;38.85;;
47337;SDS011;33069;51.970;5.892;2023-02-15T00:54:44;75.63;;;38.80;;
47337;SDS011;33069;51.970;5.892;2023-02-15T00:57:10;68.05;;;36.72;;
47337;SDS011;33069;51.970;5.892;2023-02-15T00:59:36;69.03;;;38.13;;
47337;SDS011;33069;51.970;5.892;2023-02-15T01:02:01;63.47;;;36.75;;
47337;SDS011;33069;51.970;5.892;2023-02-15T01:04:27;80.28;;;42.35;;
47337;SDS011;33069;51.970;5.892;2023-02-15T01:06:53;68.93;;;36.88;;
47337;SDS011;33069;51.970;5.892;2023-02-15T01:09:18;70.85;;;38.63;;
47337;SDS011;33069;51.970;5.892;2023-02-15T01:11:44;72.53;;;38.33;;
47337;SDS011;33069;51.970;5.892;2023-02-15T01:14:09;71.47;;;38.83;;
47337;SDS011;33069;51.970;5.892;2023-02-15T01:16:36;76.75;;;37.33;;
47337;SDS011;33069;51.970;5.892;2023-02-15T01:19:01;78.45;;;39.78;;
47337;SDS011;33069;51.970;5.892;2023-02-15T01:21:27;74.63;;;37.78;;
47337;SDS011;33069;51.970;5.892;2023-02-15T01:23:53;71.60;;;36.42;;
47337;SDS011;33069;51.970;5.892;2023-02-15T01:26:19;72.68;;;38.50;;
47337;SDS011;33069;51.970;5.892;2023-02-15T01:28:45;73.90;;;39.25;;
47337;SDS011;33069;51.970;5.892;2023-02-15T01:31:12;73.30;;;38.95;;
47337;SDS011;33069;51.970;5.892;2023-02-15T01:33:40;65.65;;;36.78;;
47337;SDS011;33069;51.970;5.892;2023-02-15T01:36:06;74.95;;;39.85;;
47337;SDS011;33069;51.970;5.892;2023-02-15T01:38:32;66.03;;;35.60;;
47337;SDS011;33069;51.970;5.892;2023-02-15T01:40:59;65.57;;;35.80;;
47337;SDS011;33069;51.970;5.892;2023-02-15T01:43:46;78.30;;;40.30;;
47337;SDS011;33069;51.970;5.892;2023-02-15T01:46:14;62.85;;;35.42;;
47337;SDS011;33069;51.970;5.892;2023-02-15T01:48:45;63.95;;;34.95;;
47337;SDS011;33069;51.970;5.892;2023-02-15T01:51:13;65.13;;;35.60;;
47337;SDS011;33069;51.970;5.892;2023-02-15T01:53:56;67.95;;;36.75;;
47337;SDS011;33069;51.970;5.892;2023-02-15T01:56:28;71.65;;;37.95;;
47337;SDS011;33069;51.970;5.892;2023-02-15T01:58:58;68.13;;;37.30;;
47337;SDS011;33069;51.970;5.892;2023-02-15T02:01:29;67.43;;;37.75;;
47337;SDS011;33069;51.970;5.892;2023-02-15T02:06:30;58.42;;;33.72;;
47337;SDS011;33069;51.970;5.892;2023-02-15T02:08:57;59.63;;;33.85;;
47337;SDS011;33069;51.970;5.892;2023-02-15T02:11:23;65.28;;;35.72;;
47337;SDS011;33069;51.970;5.892;2023-02-15T02:13:48;60.75;;;33.15;;
47337;SDS011;33069;51.970;5.892;2023-02-15T02:18:58;62.67;;;33.67;;
47337;SDS011;33069;51.970;5.892;2023-02-15T02:21:47;60.33;;;34.15;;
47337;SDS011;33069;51.970;5.892;2023-02-15T02:30:20;63.55;;;32.92;;
47337;SDS011;33069;51.970;5.892;2023-02-15T02:35:23;65.75;;;35.05;;
47337;SDS011;33069;51.970;5.892;2023-02-15T02:43:26;69.90;;;36.95;;
47337;SDS011;33069;51.970;5.892;2023-02-15T02:46:02;70.53;;;35.25;;
47337;SDS011;33069;51.970;5.892;2023-02-15T02:48:35;60.00;;;33.25;;
47337;SDS011;33069;51.970;5.892;2023-02-15T02:51:02;61.25;;;33.75;;
47337;SDS011;33069;51.970;5.892;2023-02-15T02:53:28;59.55;;;33.75;;
47337;SDS011;33069;51.970;5.892;2023-02-15T02:55:57;66.75;;;34.88;;
47337;SDS011;33069;51.970;5.892;2023-02-15T02:58:32;63.78;;;35.35;;
47337;SDS011;33069;51.970;5.892;2023-02-15T03:06:16;60.50;;;33.17;;
47337;SDS011;33069;51.970;5.892;2023-02-15T03:08:55;63.70;;;33.38;;
47337;SDS011;33069;51.970;5.892;2023-02-15T03:11:26;60.08;;;32.25;;
47337;SDS011;33069;51.970;5.892;2023-02-15T03:13:52;58.17;;;32.13;;
47337;SDS011;33069;51.970;5.892;2023-02-15T03:16:18;57.28;;;32.28;;
47337;SDS011;33069;51.970;5.892;2023-02-15T03:18:52;62.75;;;33.42;;
47337;SDS011;33069;51.970;5.892;2023-02-15T03:21:40;62.38;;;32.22;;
47337;SDS011;33069;51.970;5.892;2023-02-15T03:24:16;61.17;;;31.77;;
47337;SDS011;33069;51.970;5.892;2023-02-15T03:26:47;74.03;;;35.28;;
47337;SDS011;33069;51.970;5.892;2023-02-15T03:29:17;64.15;;;35.35;;
47337;SDS011;33069;51.970;5.892;2023-02-15T03:31:46;63.38;;;33.97;;
47337;SDS011;33069;51.970;5.892;2023-02-15T03:34:16;63.90;;;34.47;;
47337;SDS011;33069;51.970;5.892;2023-02-15T03:44:51;67.85;;;35.67;;
47337;SDS011;33069;51.970;5.892;2023-02-15T03:47:23;68.65;;;33.30;;
47337;SDS011;33069;51.970;5.892;2023-02-15T03:52:59;65.13;;;33.63;;
47337;SDS011;33069;51.970;5.892;2023-02-15T03:55:29;56.58;;;31.40;;
47337;SDS011;33069;51.970;5.892;2023-02-15T03:57:56;78.57;;;40.05;;
47337;SDS011;33069;51.970;5.892;2023-02-15T04:00:40;65.95;;;35.63;;
47337;SDS011;33069;51.970;5.892;2023-02-15T04:03:43;81.78;;;39.72;;
47337;SDS011;33069;51.970;5.892;2023-02-15T04:06:15;79.13;;;39.40;;
47337;SDS011;33069;51.970;5.892;2023-02-15T04:08:41;70.97;;;37.00;;
47337;SDS011;33069;51.970;5.892;2023-02-15T04:13:51;67.18;;;36.70;;
47337;SDS011;33069;51.970;5.892;2023-02-15T04:16:21;75.13;;;39.97;;
47337;SDS011;33069;51.970;5.892;2023-02-15T04:18:48;82.05;;;41.35;;
47337;SDS011;33069;51.970;5.892;2023-02-15T04:21:33;74.65;;;38.30;;
47337;SDS011;33069;51.970;5.892;2023-02-15T04:24:17;69.43;;;37.00;;
47337;SDS011;33069;51.970;5.892;2023-02-15T04:27:02;69.53;;;36.30;;
47337;SDS011;33069;51.970;5.892;2023-02-15T04:29:29;63.90;;;35.38;;
47337;SDS011;33069;51.970;5.892;2023-02-15T04:31:55;74.20;;;38.85;;
47337;SDS011;33069;51.970;5.892;2023-02-15T04:34:22;89.43;;;41.40;;
47337;SDS011;33069;51.970;5.892;2023-02-15T04:36:48;71.63;;;36.40;;
47337;SDS011;33069;51.970;5.892;2023-02-15T04:39:15;74.60;;;36.00;;
47337;SDS011;33069;51.970;5.892;2023-02-15T04:41:42;72.68;;;36.15;;
47337;SDS011;33069;51.970;5.892;2023-02-15T04:44:08;68.88;;;34.83;;
47337;SDS011;33069;51.970;5.892;2023-02-15T04:46:34;62.80;;;33.35;;
47337;SDS011;33069;51.970;5.892;2023-02-15T04:49:00;63.63;;;34.38;;
47337;SDS011;33069;51.970;5.892;2023-02-15T04:51:26;66.60;;;34.70;;
47337;SDS011;33069;51.970;5.892;2023-02-15T04:53:52;69.78;;;35.75;;
47337;SDS011;33069;51.970;5.892;2023-02-15T04:56:19;75.88;;;38.38;;
47337;SDS011;33069;51.970;5.892;2023-02-15T04:58:45;69.88;;;34.22;;
47337;SDS011;33069;51.970;5.892;2023-02-15T05:01:11;63.70;;;33.08;;
47337;SDS011;33069;51.970;5.892;2023-02-15T05:03:36;58.78;;;31.80;;
47337;SDS011;33069;51.970;5.892;2023-02-15T05:06:02;69.55;;;35.67;;
47337;SDS011;33069;51.970;5.892;2023-02-15T05:08:29;72.97;;;38.33;;
47337;SDS011;33069;51.970;5.892;2023-02-15T05:10:55;66.35;;;34.75;;
47337;SDS011;33069;51.970;5.892;2023-02-15T05:13:21;66.68;;;34.15;;
47337;SDS011;33069;51.970;5.892;2023-02-15T05:15:48;64.10;;;31.92;;
47337;SDS011;33069;51.970;5.892;2023-02-15T05:18:17;64.68;;;34.63;;
47337;SDS011;33069;51.970;5.892;2023-02-15T05:20:44;88.47;;;40.17;;
47337;SDS011;33069;51.970;5.892;2023-02-15T05:23:10;76.00;;;35.30;;
47337;SDS011;33069;51.970;5.892;2023-02-15T05:25:36;63.90;;;34.85;;
47337;SDS011;33069;51.970;5.892;2023-02-15T05:28:21;70.75;;;34.40;;
47337;SDS011;33069;51.970;5.892;2023-02-15T05:31:07;80.53;;;39.50;;
47337;SDS011;33069;51.970;5.892;2023-02-15T05:33:36;64.43;;;34.28;;
47337;SDS011;33069;51.970;5.892;2023-02-15T05:36:03;75.00;;;37.60;;
47337;SDS011;33069;51.970;5.892;2023-02-15T05:38:29;64.25;;;34.58;;
47337;SDS011;33069;51.970;5.892;2023-02-15T05:40:56;67.45;;;33.83;;
47337;SDS011;33069;51.970;5.892;2023-02-15T05:43:22;64.28;;;34.65;;
47337;SDS011;33069;51.970;5.892;2023-02-15T05:45:48;61.08;;;34.50;;
47337;SDS011;33069;51.970;5.892;2023-02-15T05:48:16;65.47;;;34.13;;
47337;SDS011;33069;51.970;5.892;2023-02-15T05:50:42;67.85;;;34.15;;
47337;SDS011;33069;51.970;5.892;2023-02-15T05:53:08;66.25;;;35.65;;
47337;SDS011;33069;51.970;5.892;2023-02-15T05:55:34;65.32;;;33.60;;
47337;SDS011;33069;51.970;5.892;2023-02-15T05:58:03;74.55;;;38.80;;
47337;SDS011;33069;51.970;5.892;2023-02-15T06:00:29;84.03;;;40.25;;
47337;SDS011;33069;51.970;5.892;2023-02-15T06:02:55;79.63;;;40.95;;
47337;SDS011;33069;51.970;5.892;2023-02-15T06:05:20;77.22;;;37.08;;
47337;SDS011;33069;51.970;5.892;2023-02-15T06:07:46;71.70;;;37.60;;
47337;SDS011;33069;51.970;5.892;2023-02-15T06:10:12;90.30;;;41.80;;
47337;SDS011;33069;51.970;5.892;2023-02-15T06:12:37;73.68;;;36.65;;
47337;SDS011;33069;51.970;5.892;2023-02-15T06:15:03;76.22;;;35.83;;
47337;SDS011;33069;51.970;5.892;2023-02-15T06:17:29;86.07;;;40.72;;
47337;SDS011;33069;51.970;5.892;2023-02-15T06:19:55;75.85;;;36.97;;
47337;SDS011;33069;51.970;5.892;2023-02-15T06:22:20;66.93;;;34.95;;
47337;SDS011;33069;51.970;5.892;2023-02-15T06:24:46;66.00;;;34.85;;
47337;SDS011;33069;51.970;5.892;2023-02-15T06:27:12;64.90;;;34.92;;
47337;SDS011;33069;51.970;5.892;2023-02-15T06:29:38;77.43;;;37.72;;
47337;SDS011;33069;51.970;5.892;2023-02-15T06:32:04;79.28;;;40.40;;
47337;SDS011;33069;51.970;5.892;2023-02-15T06:34:30;100.85;;;43.95;;
47337;SDS011;33069;51.970;5.892;2023-02-15T06:36:56;62.75;;;34.47;;
47337;SDS011;33069;51.970;5.892;2023-02-15T06:39:22;75.63;;;38.72;;
47337;SDS011;33069;51.970;5.892;2023-02-15T06:41:47;64.82;;;34.40;;
47337;SDS011;33069;51.970;5.892;2023-02-15T06:44:13;72.10;;;37.05;;
47337;SDS011;33069;51.970;5.892;2023-02-15T06:46:39;65.82;;;35.10;;
47337;SDS011;33069;51.970;5.892;2023-02-15T06:49:05;75.53;;;39.10;;
47337;SDS011;33069;51.970;5.892;2023-02-15T06:51:31;73.78;;;36.65;;
47337;SDS011;33069;51.970;5.892;2023-02-15T06:53:56;85.95;;;42.88;;
47337;SDS011;33069;51.970;5.892;2023-02-15T06:56:22;96.50;;;42.38;;
47337;SDS011;33069;51.970;5.892;2023-02-15T06:58:48;75.32;;;37.38;;
47337;SDS011;33069;51.970;5.892;2023-02-15T07:01:17;79.97;;;40.92;;
47337;SDS011;33069;51.970;5.892;2023-02-15T07:03:43;83.63;;;39.90;;
47337;SDS011;33069;51.970;5.892;2023-02-15T07:06:09;76.30;;;39.40;;
47337;SDS011;33069;51.970;5.892;2023-02-15T07:08:36;72.25;;;38.22;;
47337;SDS011;33069;51.970;5.892;2023-02-15T07:11:03;82.57;;;41.55;;
47337;SDS011;33069;51.970;5.892;2023-02-15T07:13:48;81.88;;;38.58;;
47337;SDS011;33069;51.970;5.892;2023-02-15T07:16:13;78.75;;;39.28;;
47337;SDS011;33069;51.970;5.892;2023-02-15T07:18:39;104.90;;;44.92;;
47337;SDS011;33069;51.970;5.892;2023-02-15T07:21:05;97.32;;;45.10;;
47337;SDS011;33069;51.970;5.892;2023-02-15T07:23:35;89.47;;;42.40;;
47337;SDS011;33069;51.970;5.892;2023-02-15T07:26:02;71.13;;;37.22;;
47337;SDS011;33069;51.970;5.892;2023-02-15T07:28:28;101.90;;;47.63;;
47337;SDS011;33069;51.970;5.892;2023-02-15T07:30:54;95.28;;;45.00;;
47337;SDS011;33069;51.970;5.892;2023-02-15T07:33:20;95.07;;;42.65;;
47337;SDS011;33069;51.970;5.892;2023-02-15T07:38:23;78.43;;;38.30;;
47337;SDS011;33069;51.970;5.892;2023-02-15T07:40:49;88.70;;;43.75;;
47337;SDS011;33069;51.970;5.892;2023-02-15T07:43:15;81.60;;;42.03;;
47337;SDS011;33069;51.970;5.892;2023-02-15T07:45:41;102.90;;;47.15;;
47337;SDS011;33069;51.970;5.892;2023-02-15T07:48:07;92.03;;;45.50;;
47337;SDS011;33069;51.970;5.892;2023-02-15T07:50:33;91.72;;;45.65;;
47337;SDS011;33069;51.970;5.892;2023-02-15T07:53:03;91.38;;;41.92;;
47337;SDS011;33069;51.970;5.892;2023-02-15T07:55:29;93.03;;;45.33;;
47337;SDS011;33069;51.970;5.892;2023-02-15T07:57:55;86.03;;;42.28;;
47337;SDS011;33069;51.970;5.892;2023-02-15T08:00:21;97.22;;;45.85;;
47337;SDS011;33069;51.970;5.892;2023-02-15T08:02:50;95.00;;;44.88;;
47337;SDS011;33069;51.970;5.892;2023-02-15T08:05:36;87.32;;;42.65;;
47337;SDS011;33069;51.970;5.892;2023-02-15T08:08:03;93.72;;;44.13;;
47337;SDS011;33069;51.970;5.892;2023-02-15T08:10:29;88.93;;;43.63;;
47337;SDS011;33069;51.970;5.892;2023-02-15T08:13:13;87.65;;;42.47;;
47337;SDS011;33069;51.970;5.892;2023-02-15T08:15:38;90.53;;;43.05;;
47337;SDS011;33069;51.970;5.892;2023-02-15T08:18:04;86.28;;;42.22;;
47337;SDS011;33069;51.970;5.892;2023-02-15T08:20:30;87.95;;;43.95;;
47337;SDS011;33069;51.970;5.892;2023-02-15T08:22:55;84.07;;;41.60;;
47337;SDS011;33069;51.970;5.892;2023-02-15T08:25:21;90.07;;;42.72;;
47337;SDS011;33069;51.970;5.892;2023-02-15T08:27:47;90.68;;;42.58;;
47337;SDS011;33069;51.970;5.892;2023-02-15T08:30:14;81.47;;;40.70;;
47337;SDS011;33069;51.970;5.892;2023-02-15T08:32:39;79.15;;;41.28;;
47337;SDS011;33069;51.970;5.892;2023-02-15T08:35:05;80.97;;;41.83;;
47337;SDS011;33069;51.970;5.892;2023-02-15T08:37:31;77.03;;;39.58;;
47337;SDS011;33069;51.970;5.892;2023-02-15T08:39:57;78.97;;;40.70;;
47337;SDS011;33069;51.970;5.892;2023-02-15T08:42:23;76.35;;;39.90;;
47337;SDS011;33069;51.970;5.892;2023-02-15T08:44:48;84.60;;;43.55;;
47337;SDS011;33069;51.970;5.892;2023-02-15T08:47:15;72.53;;;38.85;;
47337;SDS011;33069;51.970;5.892;2023-02-15T08:49:41;77.75;;;37.38;;
47337;SDS011;33069;51.970;5.892;2023-02-15T08:52:07;76.25;;;38.10;;
47337;SDS011;33069;51.970;5.892;2023-02-15T08:54:32;75.55;;;39.17;;
47337;SDS011;33069;51.970;5.892;2023-02-15T08:56:58;72.63;;;36.92;;
47337;SDS011;33069;51.970;5.892;2023-02-15T08:59:24;71.43;;;39.55;;
47337;SDS011;33069;51.970;5.892;2023-02-15T09:01:52;64.63;;;35.10;;
47337;SDS011;33069;51.970;5.892;2023-02-15T09:04:18;73.18;;;37.78;;
47337;SDS011;33069;51.970;5.892;2023-02-15T09:06:45;73.38;;;37.78;;
47337;SDS011;33069;51.970;5.892;2023-02-15T09:09:13;67.10;;;36.70;;
47337;SDS011;33069;51.970;5.892;2023-02-15T09:11:40;71.20;;;38.13;;
47337;SDS011;33069;51.970;5.892;2023-02-15T09:14:08;70.40;;;36.92;;
47337;SDS011;33069;51.970;5.892;2023-02-15T09:16:38;68.10;;;37.28;;
47337;SDS011;33069;51.970;5.892;2023-02-15T09:19:05;63.25;;;35.92;;
47337;SDS011;33069;51.970;5.892;2023-02-15T09:21:32;70.03;;;38.47;;
47337;SDS011;33069;51.970;5.892;2023-02-15T09:24:01;66.68;;;35.83;;
47337;SDS011;33069;51.970;5.892;2023-02-15T09:26:29;64.05;;;36.47;;
47337;SDS011;33069;51.970;5.892;2023-02-15T09:28:57;61.67;;;35.80;;
47337;SDS011;33069;51.970;5.892;2023-02-15T09:31:27;71.47;;;38.83;;
47337;SDS011;33069;51.970;5.892;2023-02-15T09:33:56;71.68;;;35.08;;
47337;SDS011;33069;51.970;5.892;2023-02-15T09:36:24;60.25;;;33.65;;
47337;SDS011;33069;51.970;5.892;2023-02-15T09:38:54;62.80;;;33.53;;
47337;SDS011;33069;51.970;5.892;2023-02-15T09:55:09;57.17;;;32.15;;
47337;SDS011;33069;51.970;5.892;2023-02-15T10:11:15;54.95;;;31.55;;
47337;SDS011;33069;51.970;5.892;2023-02-15T10:17:10;53.95;;;31.58;;
47337;SDS011;33069;51.970;5.892;2023-02-15T10:22:58;50.17;;;29.92;;
47337;SDS011;33069;51.970;5.892;2023-02-15T10:26:00;51.10;;;30.25;;
47337;SDS011;33069;51.970;5.892;2023-02-15T10:28:30;49.40;;;29.73;;
47337;SDS011;33069;51.970;5.892;2023-02-15T10:31:47;53.88;;;30.40;;
47337;SDS011;33069;51.970;5.892;2023-02-15T10:50:46;47.42;;;29.27;;
47337;SDS011;33069;51.970;5.892;2023-02-15T11:12:38;50.92;;;27.88;;
47337;SDS011;33069;51.970;5.892;2023-02-15T11:17:50;45.10;;;28.08;;
47337;SDS011;33069;51.970;5.892;2023-02-15T11:20:35;49.72;;;30.13;;
47337;SDS011;33069;51.970;5.892;2023-02-15T11:23:14;50.65;;;29.45;;
47337;SDS011;33069;51.970;5.892;2023-02-15T11:25:44;47.83;;;29.05;;
47337;SDS011;33069;51.970;5.892;2023-02-15T11:28:23;44.33;;;29.33;;
47337;SDS011;33069;51.970;5.892;2023-02-15T11:31:00;44.97;;;28.10;;
47337;SDS011;33069;51.970;5.892;2023-02-15T11:33:37;47.75;;;30.88;;
47337;SDS011;33069;51.970;5.892;2023-02-15T11:36:13;47.90;;;29.92;;
47337;SDS011;33069;51.970;5.892;2023-02-15T11:38:42;45.50;;;28.70;;
47337;SDS011;33069;51.970;5.892;2023-02-15T11:41:12;49.17;;;30.45;;
47337;SDS011;33069;51.970;5.892;2023-02-15T11:43:55;46.90;;;30.67;;
47337;SDS011;33069;51.970;5.892;2023-02-15T11:46:31;50.72;;;30.38;;
47337;SDS011;33069;51.970;5.892;2023-02-15T11:48:57;53.50;;;31.33;;
47337;SDS011;33069;51.970;5.892;2023-02-15T11:51:23;45.17;;;30.50;;
47337;SDS011;33069;51.970;5.892;2023-02-15T11:53:50;48.97;;;29.15;;
47337;SDS011;33069;51.970;5.892;2023-02-15T11:56:17;47.47;;;30.60;;
47337;SDS011;33069;51.970;5.892;2023-02-15T11:58:53;50.97;;;32.35;;
47337;SDS011;33069;51.970;5.892;2023-02-15T12:01:43;52.20;;;30.20;;
47337;SDS011;33069;51.970;5.892;2023-02-15T12:04:16;48.45;;;30.80;;
47337;SDS011;33069;51.970;5.892;2023-02-15T12:07:02;52.83;;;31.40;;
47337;SDS011;33069;51.970;5.892;2023-02-15T12:12:47;49.92;;;29.77;;
47337;SDS011;33069;51.970;5.892;2023-02-15T12:15:13;47.55;;;31.42;;
47337;SDS011;33069;51.970;5.892;2023-02-15T12:17:50;50.35;;;29.17;;
47337;SDS011;33069;51.970;5.892;2023-02-15T12:22:51;44.83;;;28.98;;
47337;SDS011;33069;51.970;5.892;2023-02-15T12:25:20;49.60;;;30.13;;
47337;SDS011;33069;51.970;5.892;2023-02-15T12:31:09;50.30;;;31.02;;
47337;SDS011;33069;51.970;5.892;2023-02-15T12:33:45;45.97;;;30.10;;
47337;SDS011;33069;51.970;5.892;2023-02-15T12:36:12;50.95;;;30.85;;
47337;SDS011;33069;51.970;5.892;2023-02-15T12:38:43;52.95;;;30.20;;
47337;SDS011;33069;51.970;5.892;2023-02-15T12:44:20;53.75;;;31.27;;
47337;SDS011;33069;51.970;5.892;2023-02-15T12:47:04;46.28;;;28.20;;
47337;SDS011;33069;51.970;5.892;2023-02-15T12:49:38;47.60;;;31.65;;
47337;SDS011;33069;51.970;5.892;2023-02-15T12:54:45;42.10;;;28.63;;
47337;SDS011;33069;51.970;5.892;2023-02-15T12:57:32;46.95;;;31.70;;
47337;SDS011;33069;51.970;5.892;2023-02-15T12:59:59;51.47;;;32.53;;
47337;SDS011;33069;51.970;5.892;2023-02-15T13:02:48;46.53;;;31.80;;
47337;SDS011;33069;51.970;5.892;2023-02-15T13:05:30;49.38;;;31.70;;
47337;SDS011;33069;51.970;5.892;2023-02-15T13:08:10;48.67;;;30.67;;
47337;SDS011;33069;51.970;5.892;2023-02-15T13:10:40;49.45;;;31.45;;
47337;SDS011;33069;51.970;5.892;2023-02-15T13:13:18;54.33;;;32.78;;
47337;SDS011;33069;51.970;5.892;2023-02-15T13:15:48;48.67;;;30.92;;
47337;SDS011;33069;51.970;5.892;2023-02-15T13:18:17;50.60;;;29.33;;
47337;SDS011;33069;51.970;5.892;2023-02-15T13:20:50;48.60;;;31.45;;
47337;SDS011;33069;51.970;5.892;2023-02-15T13:23:27;49.28;;;31.02;;
47337;SDS011;33069;51.970;5.892;2023-02-15T13:25:58;47.50;;;30.92;;
47337;SDS011;33069;51.970;5.892;2023-02-15T13:29:05;51.28;;;31.55;;
47337;SDS011;33069;51.970;5.892;2023-02-15T13:31:26;52.85;;;32.83;;
47337;SDS011;33069;51.970;5.892;2023-02-15T13:34:01;54.90;;;34.38;;
47337;SDS011;33069;51.970;5.892;2023-02-15T13:36:45;52.15;;;32.10;;
47337;SDS011;33069;51.970;5.892;2023-02-15T13:55:44;54.28;;;34.50;;
47337;SDS011;33069;51.970;5.892;2023-02-15T13:58:53;55.75;;;33.10;;
47337;SDS011;33069;51.970;5.892;2023-02-15T14:18:45;52.28;;;32.45;;
47337;SDS011;33069;51.970;5.892;2023-02-15T14:21:20;56.60;;;32.80;;
47337;SDS011;33069;51.970;5.892;2023-02-15T14:26:40;56.50;;;32.35;;
47337;SDS011;33069;51.970;5.892;2023-02-15T14:29:27;57.03;;;34.97;;
47337;SDS011;33069;51.970;5.892;2023-02-15T14:32:08;53.80;;;31.40;;
47337;SDS011;33069;51.970;5.892;2023-02-15T14:35:04;55.40;;;31.00;;
47337;SDS011;33069;51.970;5.892;2023-02-15T14:40:17;71.07;;;34.60;;
47337;SDS011;33069;51.970;5.892;2023-02-15T14:49:08;56.50;;;32.25;;
47337;SDS011;33069;51.970;5.892;2023-02-15T14:54:11;49.55;;;31.92;;
47337;SDS011;33069;51.970;5.892;2023-02-15T15:05:19;55.05;;;33.10;;
47337;SDS011;33069;51.970;5.892;2023-02-15T15:07:52;50.53;;;30.63;;
47337;SDS011;33069;51.970;5.892;2023-02-15T15:12:46;51.47;;;31.55;;
47337;SDS011;33069;51.970;5.892;2023-02-15T15:17:53;53.05;;;32.53;;
47337;SDS011;33069;51.970;5.892;2023-02-15T15:23:33;55.03;;;32.03;;
47337;SDS011;33069;51.970;5.892;2023-02-15T15:28:06;50.63;;;31.65;;
47337;SDS011;33069;51.970;5.892;2023-02-15T15:33:13;57.05;;;35.28;;
47337;SDS011;33069;51.970;5.892;2023-02-15T15:36:22;51.90;;;32.20;;
47337;SDS011;33069;51.970;5.892;2023-02-15T15:41:52;51.85;;;31.98;;
47337;SDS011;33069;51.970;5.892;2023-02-15T15:50:31;54.83;;;30.90;;
47337;SDS011;33069;51.970;5.892;2023-02-15T15:52:58;54.35;;;31.13;;
47337;SDS011;33069;51.970;5.892;2023-02-15T15:55:30;63.45;;;34.42;;
47337;SDS011;33069;51.970;5.892;2023-02-15T15:58:05;54.10;;;31.23;;
47337;SDS011;33069;51.970;5.892;2023-02-15T16:03:04;51.17;;;31.98;;
47337;SDS011;33069;51.970;5.892;2023-02-15T16:05:39;51.10;;;30.10;;
47337;SDS011;33069;51.970;5.892;2023-02-15T16:08:05;56.55;;;32.72;;
47337;SDS011;33069;51.970;5.892;2023-02-15T16:10:31;56.00;;;31.13;;
47337;SDS011;33069;51.970;5.892;2023-02-15T16:12:59;61.70;;;33.70;;
47337;SDS011;33069;51.970;5.892;2023-02-15T16:15:34;50.05;;;30.75;;
47337;SDS011;33069;51.970;5.892;2023-02-15T16:18:10;51.60;;;29.60;;
47337;SDS011;33069;51.970;5.892;2023-02-15T16:20:39;55.38;;;30.25;;
47337;SDS011;33069;51.970;5.892;2023-02-15T16:28:39;55.77;;;31.10;;
47337;SDS011;33069;51.970;5.892;2023-02-15T16:31:13;60.70;;;31.35;;
47337;SDS011;33069;51.970;5.892;2023-02-15T16:33:41;55.95;;;31.73;;
47337;SDS011;33069;51.970;5.892;2023-02-15T16:36:11;57.03;;;31.05;;
47337;SDS011;33069;51.970;5.892;2023-02-15T16:41:13;53.78;;;31.55;;
47337;SDS011;33069;51.970;5.892;2023-02-15T16:43:43;58.30;;;34.45;;
47337;SDS011;33069;51.970;5.892;2023-02-15T16:46:11;53.45;;;33.17;;
47337;SDS011;33069;51.970;5.892;2023-02-15T16:48:51;53.15;;;33.45;;
47337;SDS011;33069;51.970;5.892;2023-02-15T16:51:27;56.88;;;33.20;;
47337;SDS011;33069;51.970;5.892;2023-02-15T16:53:55;57.45;;;34.28;;
47337;SDS011;33069;51.970;5.892;2023-02-15T16:56:25;58.05;;;33.38;;
47337;SDS011;33069;51.970;5.892;2023-02-15T16:58:55;57.58;;;31.08;;
47337;SDS011;33069;51.970;5.892;2023-02-15T17:01:24;61.85;;;32.90;;
47337;SDS011;33069;51.970;5.892;2023-02-15T17:04:16;56.90;;;32.88;;
47337;SDS011;33069;51.970;5.892;2023-02-15T17:07:05;57.70;;;31.77;;
47337;SDS011;33069;51.970;5.892;2023-02-15T17:09:48;59.03;;;33.22;;
47337;SDS011;33069;51.970;5.892;2023-02-15T17:15:23;59.10;;;33.30;;
47337;SDS011;33069;51.970;5.892;2023-02-15T17:18:19;57.83;;;33.22;;
47337;SDS011;33069;51.970;5.892;2023-02-15T17:20:45;60.75;;;32.45;;
47337;SDS011;33069;51.970;5.892;2023-02-15T17:23:32;58.92;;;31.48;;
47337;SDS011;33069;51.970;5.892;2023-02-15T17:26:12;63.33;;;34.17;;
47337;SDS011;33069;51.970;5.892;2023-02-15T17:28:46;59.55;;;32.92;;
47337;SDS011;33069;51.970;5.892;2023-02-15T17:31:16;62.63;;;33.33;;
47337;SDS011;33069;51.970;5.892;2023-02-15T17:33:43;57.10;;;33.40;;
47337;SDS011;33069;51.970;5.892;2023-02-15T17:41:29;56.45;;;31.67;;
47337;SDS011;33069;51.970;5.892;2023-02-15T17:43:56;57.25;;;33.63;;
47337;SDS011;33069;51.970;5.892;2023-02-15T17:46:23;65.85;;;36.22;;
47337;SDS011;33069;51.970;5.892;2023-02-15T17:48:50;57.28;;;33.33;;
47337;SDS011;33069;51.970;5.892;2023-02-15T17:51:19;63.47;;;34.17;;
47337;SDS011;33069;51.970;5.892;2023-02-15T17:53:45;57.13;;;33.65;;
47337;SDS011;33069;51.970;5.892;2023-02-15T17:56:31;61.38;;;33.22;;
47337;SDS011;33069;51.970;5.892;2023-02-15T17:58:57;57.65;;;33.92;;
47337;SDS011;33069;51.970;5.892;2023-02-15T18:01:23;56.28;;;32.97;;
47337;SDS011;33069;51.970;5.892;2023-02-15T18:04:07;57.92;;;32.60;;
47337;SDS011;33069;51.970;5.892;2023-02-15T18:06:57;58.17;;;32.28;;
47337;SDS011;33069;51.970;5.892;2023-02-15T18:09:42;55.75;;;31.55;;
47337;SDS011;33069;51.970;5.892;2023-02-15T18:14:54;51.78;;;30.52;;
47337;SDS011;33069;51.970;5.892;2023-02-15T18:17:28;56.42;;;30.80;;
47337;SDS011;33069;51.970;5.892;2023-02-15T18:19:59;59.67;;;33.08;;
47337;SDS011;33069;51.970;5.892;2023-02-15T18:22:31;59.65;;;32.80;;
47337;SDS011;33069;51.970;5.892;2023-02-15T18:24:58;54.30;;;32.67;;
47337;SDS011;33069;51.970;5.892;2023-02-15T18:27:24;61.22;;;34.38;;
47337;SDS011;33069;51.970;5.892;2023-02-15T18:29:50;60.30;;;35.15;;